Time;durP1;ratioP1;P1;durP2;ratioP2;P2;SDS_P1;SDS_P2;PMS_P1;PMS_P2;Temp;Humidity;BMP_temperature;BMP_pressure;BME280_temperature;BME280_humidity;BME280_pressure;Samples;Min_cycle;Max_cycle;Signal;HPM_P1;HPM_P2
2023/01/18 00:00:58;;;;;;;11.87;7.17;;;-1.50;99.90;;;;;;5010069;28;20041;-75
2023/01/18 00:03:25;;;;;;;15.67;9.67;;;-1.50;99.90;;;;;;5035659;28;20028;-76
2023/01/18 00:05:53;;;;;;;14.67;8.70;;;-1.60;99.90;;;;;;5043704;28;20029;-76
2023/01/18 00:08:19;;;;;;;12.43;7.50;;;-1.60;99.90;;;;;;5042932;28;20044;-76
2023/01/18 00:10:46;;;;;;;14.30;7.50;;;-1.60;99.90;;;;;;5043413;28;20045;-76
2023/01/18 00:13:12;;;;;;;15.87;8.53;;;-1.60;99.90;;;;;;5020339;28;20045;-75
2023/01/18 00:15:38;;;;;;;13.00;8.60;;;-1.60;99.90;;;;;;5029085;28;20037;-76
2023/01/18 00:18:05;;;;;;;12.03;8.03;;;-1.60;99.90;;;;;;5033545;28;20523;-75
2023/01/18 00:20:31;;;;;;;12.70;8.23;;;-1.70;99.90;;;;;;5044167;28;20936;-75
2023/01/18 00:23:00;;;;;;;10.80;7.73;;;-1.70;99.90;;;;;;5033971;28;20053;-75
2023/01/18 00:25:27;;;;;;;13.57;7.97;;;-1.50;99.90;;;;;;5027552;28;20063;-74
2023/01/18 00:27:55;;;;;;;15.80;9.70;;;-1.20;99.90;;;;;;5026328;28;20089;-74
2023/01/18 00:30:24;;;;;;;21.37;13.00;;;-1.00;99.90;;;;;;5041853;28;20543;-74
2023/01/18 00:32:57;;;;;;;18.77;12.00;;;-0.90;99.90;;;;;;5032911;28;20033;-73
2023/01/18 00:35:24;;;;;;;19.47;11.37;;;-0.80;99.90;;;;;;5025225;28;20039;-74
2023/01/18 00:37:52;;;;;;;16.73;10.73;;;-0.80;99.90;;;;;;5043663;28;20491;-74
2023/01/18 00:40:20;;;;;;;19.00;11.27;;;-0.90;99.90;;;;;;5043777;28;20041;-74
2023/01/18 00:45:31;;;;;;;19.23;11.83;;;-0.90;99.90;;;;;;5045954;28;20103;-74
2023/01/18 00:47:57;;;;;;;18.87;11.67;;;-1.00;99.90;;;;;;5041996;28;20491;-74
2023/01/18 00:50:24;;;;;;;19.57;10.87;;;-1.00;99.90;;;;;;5043150;28;20033;-74
2023/01/18 00:52:55;;;;;;;13.47;8.97;;;-1.10;99.90;;;;;;5002931;28;20041;-74
2023/01/18 00:55:21;;;;;;;18.90;10.97;;;-1.10;99.90;;;;;;5026776;28;20040;-74
2023/01/18 00:57:48;;;;;;;22.53;13.03;;;-1.10;99.90;;;;;;5042268;28;20392;-74
2023/01/18 01:00:15;;;;;;;25.53;14.30;;;-1.20;99.90;;;;;;5043254;28;20100;-74
2023/01/18 01:02:41;;;;;;;16.47;11.07;;;-1.20;99.90;;;;;;5033430;28;20056;-74
2023/01/18 01:08:05;;;;;;;17.27;12.03;;;-1.40;99.90;;;;;;5047531;28;20719;-73
2023/01/18 01:10:33;;;;;;;18.90;12.73;;;-1.50;99.90;;;;;;5048986;28;20041;-74
2023/01/18 01:26:44;;;;;;;22.20;13.67;;;-1.70;99.90;;;;;;5045959;28;20476;-75
2023/01/18 01:29:10;;;;;;;20.03;12.93;;;-1.70;99.90;;;;;;5033514;28;20040;-74
2023/01/18 01:31:37;;;;;;;19.77;12.57;;;-1.70;99.90;;;;;;5028207;28;20044;-74
2023/01/18 01:34:04;;;;;;;24.03;13.90;;;-1.70;99.90;;;;;;5024666;28;20037;-74
2023/01/18 01:36:30;;;;;;;18.23;13.13;;;-1.70;99.90;;;;;;5046944;28;20045;-74
2023/01/18 01:38:56;;;;;;;19.93;12.87;;;-1.70;99.90;;;;;;5041830;28;20055;-74
2023/01/18 01:41:31;;;;;;;22.70;12.93;;;-1.70;99.90;;;;;;5026207;28;20041;-74
2023/01/18 01:43:58;;;;;;;20.50;11.47;;;-1.70;99.90;;;;;;5055560;28;20032;-74
2023/01/18 01:47:00;;;;;;;17.37;10.97;;;-1.70;99.90;;;;;;5046004;28;20052;-74
2023/01/18 01:49:33;;;;;;;12.83;7.97;;;-1.80;99.90;;;;;;5047446;28;20037;-74
2023/01/18 01:52:07;;;;;;;15.43;10.17;;;-1.80;99.90;;;;;;5024333;28;20064;-73
2023/01/18 01:54:44;;;;;;;20.70;12.53;;;-1.80;99.90;;;;;;5041439;28;20049;-74
2023/01/18 01:57:21;;;;;;;20.90;12.47;;;-1.80;99.90;;;;;;5017611;28;20037;-73
2023/01/18 02:00:13;;;;;;;16.87;10.70;;;-1.80;99.90;;;;;;5048740;28;20037;-74
2023/01/18 02:02:41;;;;;;;18.17;11.87;;;-1.80;99.90;;;;;;5036683;28;20045;-73
2023/01/18 02:05:10;;;;;;;20.07;12.10;;;-1.80;99.90;;;;;;5045303;28;20028;-74
2023/01/18 02:07:36;;;;;;;21.03;13.20;;;-1.80;99.90;;;;;;5031106;28;20617;-74
2023/01/18 02:10:05;;;;;;;17.07;11.70;;;-1.80;99.90;;;;;;5017294;28;20052;-73
2023/01/18 02:12:32;;;;;;;19.57;12.57;;;-1.80;99.90;;;;;;5022973;28;20045;-74
2023/01/18 02:14:58;;;;;;;20.63;13.23;;;-1.80;99.90;;;;;;5028802;28;20037;-74
2023/01/18 02:17:58;;;;;;;19.33;11.20;;;-1.90;99.90;;;;;;5044713;28;21257;-75
2023/01/18 02:20:54;;;;;;;21.80;14.23;;;-1.80;99.90;;;;;;5028060;28;20510;-75
2023/01/18 02:23:51;;;;;;;21.43;14.83;;;-1.80;99.90;;;;;;5038987;28;20067;-75
2023/01/18 02:26:49;;;;;;;21.83;13.87;;;-1.80;99.90;;;;;;5044869;28;20502;-74
2023/01/18 02:29:20;;;;;;;21.83;14.70;;;-1.80;99.90;;;;;;5044779;28;20044;-74
2023/01/18 02:31:47;;;;;;;25.77;15.40;;;-1.80;99.90;;;;;;5013911;28;20352;-74
2023/01/18 02:34:20;;;;;;;26.60;16.97;;;-1.80;99.90;;;;;;5038775;28;20514;-74
2023/01/18 02:37:05;;;;;;;24.10;15.20;;;-1.80;99.90;;;;;;5044346;28;20400;-73
2023/01/18 02:39:38;;;;;;;25.37;14.03;;;-1.70;99.90;;;;;;5044765;28;20077;-73
2023/01/18 02:48:14;;;;;;;21.87;13.33;;;-1.70;99.90;;;;;;5026827;28;20045;-73
2023/01/18 02:50:40;;;;;;;22.17;13.50;;;-1.70;99.90;;;;;;5028705;28;20372;-73
2023/01/18 02:53:13;;;;;;;24.37;14.10;;;-1.80;99.90;;;;;;5035844;28;20411;-74
2023/01/18 02:55:39;;;;;;;20.63;13.45;;;-1.70;99.90;;;;;;5036848;28;20024;-73
2023/01/18 02:58:20;;;;;;;21.10;14.17;;;-1.70;99.90;;;;;;5026436;28;20495;-74
2023/01/18 03:00:53;;;;;;;21.43;14.13;;;-1.80;99.90;;;;;;5045261;28;20029;-74
2023/01/18 03:03:21;;;;;;;23.50;13.77;;;-1.80;99.90;;;;;;5019894;28;20043;-73
2023/01/18 03:05:50;;;;;;;19.67;13.00;;;-1.80;99.90;;;;;;5030280;28;20585;-74
2023/01/18 03:08:46;;;;;;;21.50;14.00;;;-1.80;99.90;;;;;;5016827;28;20188;-73
2023/01/18 03:11:30;;;;;;;17.70;11.93;;;-1.80;99.90;;;;;;5026540;28;20069;-73
2023/01/18 03:14:21;;;;;;;18.83;12.70;;;-1.80;99.90;;;;;;5039834;28;20040;-74
2023/01/18 03:16:57;;;;;;;23.67;14.80;;;-1.80;99.90;;;;;;5042681;28;20041;-74
2023/01/18 03:25:17;;;;;;;20.17;11.63;;;-1.90;99.90;;;;;;5046449;28;20476;-74
2023/01/18 03:36:11;;;;;;;16.60;9.80;;;-1.90;99.90;;;;;;5044413;28;20400;-74
2023/01/18 03:38:41;;;;;;;15.37;10.20;;;-1.90;99.90;;;;;;5026992;28;20063;-74
2023/01/18 03:41:10;;;;;;;15.33;10.77;;;-2.00;99.90;;;;;;5024796;28;20396;-74
2023/01/18 03:43:39;;;;;;;15.53;9.80;;;-2.00;99.90;;;;;;5039604;28;20033;-74
2023/01/18 03:46:06;;;;;;;11.33;7.90;;;-2.00;99.90;;;;;;5043943;28;20419;-74
2023/01/18 03:48:35;;;;;;;14.53;8.83;;;-2.00;99.90;;;;;;5043307;28;20040;-74
2023/01/18 03:51:09;;;;;;;13.33;8.33;;;-2.00;99.90;;;;;;5008420;28;20128;-73
2023/01/18 03:53:46;;;;;;;11.63;8.00;;;-2.00;99.90;;;;;;5021453;28;20049;-74
2023/01/18 03:56:41;;;;;;;14.90;9.77;;;-2.10;99.90;;;;;;5046040;28;20033;-73
2023/01/18 03:59:08;;;;;;;13.90;8.60;;;-2.10;99.90;;;;;;5039470;28;20076;-74
2023/01/18 04:01:35;;;;;;;13.40;8.83;;;-2.10;99.90;;;;;;5023875;28;20048;-74
2023/01/18 04:04:02;;;;;;;17.53;9.37;;;-2.10;99.90;;;;;;5021146;28;20040;-74
2023/01/18 04:06:30;;;;;;;14.67;8.97;;;-2.10;99.90;;;;;;5010037;28;20033;-74
2023/01/18 04:08:56;;;;;;;13.73;8.27;;;-2.20;99.90;;;;;;5029143;28;20048;-74
2023/01/18 04:11:22;;;;;;;13.70;7.63;;;-2.20;99.90;;;;;;5047328;28;20036;-75
2023/01/18 04:13:49;;;;;;;11.93;7.17;;;-2.20;99.90;;;;;;5041897;28;20041;-74
2023/01/18 04:16:15;;;;;;;12.40;7.97;;;-2.20;99.90;;;;;;5044006;28;20491;-74
2023/01/18 04:18:41;;;;;;;11.93;8.47;;;-2.20;99.90;;;;;;5034495;28;20045;-74
2023/01/18 04:21:08;;;;;;;15.30;7.33;;;-2.30;99.90;;;;;;5025070;28;20043;-74
2023/01/18 04:23:34;;;;;;;12.43;7.37;;;-2.30;99.90;;;;;;5022802;28;20055;-75
2023/01/18 04:26:00;;;;;;;12.40;8.43;;;-2.30;99.90;;;;;;5027356;28;20041;-76
2023/01/18 04:28:27;;;;;;;15.67;8.17;;;-2.30;99.90;;;;;;5029472;28;20392;-75
2023/01/18 04:30:55;;;;;;;14.40;8.73;;;-2.30;99.90;;;;;;5017942;28;20044;-74
2023/01/18 04:33:23;;;;;;;12.87;7.93;;;-2.40;99.90;;;;;;5018351;28;21149;-74
2023/01/18 04:35:50;;;;;;;12.23;8.40;;;-2.40;99.90;;;;;;5029956;28;20052;-74
2023/01/18 04:38:16;;;;;;;12.30;8.13;;;-2.40;99.90;;;;;;5048731;28;20399;-75
2023/01/18 04:40:43;;;;;;;14.03;8.73;;;-2.40;99.90;;;;;;5029316;28;20032;-74
2023/01/18 04:43:09;;;;;;;12.27;7.80;;;-2.40;99.90;;;;;;5004147;28;20037;-74
2023/01/18 04:45:35;;;;;;;14.63;8.80;;;-2.40;99.90;;;;;;5035712;28;20036;-74
2023/01/18 04:48:02;;;;;;;13.30;8.80;;;-2.40;99.90;;;;;;5047272;28;20033;-73
2023/01/18 04:50:28;;;;;;;15.53;9.50;;;-2.40;99.90;;;;;;5021087;28;20047;-75
2023/01/18 04:52:54;;;;;;;16.93;11.53;;;-2.40;99.90;;;;;;5021997;28;20075;-75
2023/01/18 04:55:21;;;;;;;17.30;10.87;;;-2.40;99.90;;;;;;5030816;28;20033;-75
2023/01/18 04:57:54;;;;;;;19.53;11.43;;;-2.40;99.90;;;;;;5049845;28;20040;-74
2023/01/18 05:00:21;;;;;;;16.30;10.97;;;-2.30;99.90;;;;;;5027714;28;20056;-75
2023/01/18 05:02:48;;;;;;;17.83;11.07;;;-2.30;99.90;;;;;;5037816;28;20810;-74
2023/01/18 05:05:15;;;;;;;20.90;12.93;;;-2.30;99.90;;;;;;5017409;28;20045;-75
2023/01/18 05:07:41;;;;;;;17.33;10.83;;;-2.30;99.90;;;;;;5032552;28;20044;-75
2023/01/18 05:10:08;;;;;;;18.67;11.67;;;-2.30;99.90;;;;;;5019234;28;20877;-76
2023/01/18 05:12:34;;;;;;;19.00;12.07;;;-2.30;99.90;;;;;;5022849;28;20043;-75
2023/01/18 05:15:00;;;;;;;15.47;11.10;;;-2.30;99.90;;;;;;5047761;28;20044;-74
2023/01/18 05:17:29;;;;;;;14.30;9.67;;;-2.30;99.90;;;;;;5047597;28;20032;-76
2023/01/18 05:19:56;;;;;;;13.73;9.67;;;-2.30;99.90;;;;;;5030091;28;20041;-75
2023/01/18 05:22:22;;;;;;;13.30;9.43;;;-2.30;99.90;;;;;;5038298;28;20547;-74
2023/01/18 05:24:48;;;;;;;17.10;10.00;;;-2.40;99.90;;;;;;5028754;28;20036;-75
2023/01/18 05:27:15;;;;;;;16.10;9.73;;;-2.40;99.90;;;;;;5029728;28;20040;-75
2023/01/18 05:29:42;;;;;;;15.00;10.50;;;-2.40;99.90;;;;;;5029441;28;20824;-76
2023/01/18 05:32:10;;;;;;;20.40;11.90;;;-2.40;99.90;;;;;;5042060;28;20033;-74
2023/01/18 05:34:36;;;;;;;15.67;10.57;;;-2.40;99.90;;;;;;5027320;28;20033;-74
2023/01/18 05:37:03;;;;;;;22.60;13.27;;;-2.40;99.90;;;;;;5028879;28;20510;-75
2023/01/18 05:39:29;;;;;;;18.60;12.27;;;-2.40;99.90;;;;;;5013864;28;20061;-75
2023/01/18 05:41:56;;;;;;;20.87;13.23;;;-2.40;99.90;;;;;;5027668;28;20514;-74
2023/01/18 05:44:22;;;;;;;16.83;11.33;;;-2.40;99.90;;;;;;5039515;28;20484;-74
2023/01/18 05:46:49;;;;;;;19.07;12.33;;;-2.40;99.90;;;;;;5011589;28;20029;-75
2023/01/18 05:49:15;;;;;;;17.90;12.37;;;-2.30;99.90;;;;;;5029250;28;21089;-76
2023/01/18 05:51:42;;;;;;;18.00;10.63;;;-2.30;99.90;;;;;;5009429;28;20032;-75
2023/01/18 05:54:08;;;;;;;21.47;11.10;;;-2.30;99.90;;;;;;5007285;28;20037;-74
2023/01/18 05:56:34;;;;;;;18.07;10.93;;;-2.30;99.90;;;;;;5031256;28;20025;-75
2023/01/18 05:59:00;;;;;;;14.87;9.97;;;-2.30;99.90;;;;;;5047461;28;20040;-75
2023/01/18 06:01:27;;;;;;;18.30;10.67;;;-2.30;99.90;;;;;;5043796;28;20048;-75
2023/01/18 06:03:54;;;;;;;15.13;8.83;;;-2.40;99.90;;;;;;5044125;28;20044;-76
2023/01/18 06:06:20;;;;;;;15.60;9.67;;;-2.30;99.90;;;;;;5028288;28;20033;-75
2023/01/18 06:08:46;;;;;;;13.63;9.33;;;-2.40;99.90;;;;;;5027000;28;20037;-75
2023/01/18 06:11:13;;;;;;;14.07;9.00;;;-2.40;99.90;;;;;;5041928;28;20033;-75
2023/01/18 06:13:39;;;;;;;14.27;8.90;;;-2.40;99.90;;;;;;5042301;28;20480;-75
2023/01/18 06:16:05;;;;;;;15.03;9.33;;;-2.40;99.90;;;;;;5047714;28;20389;-74
2023/01/18 06:18:32;;;;;;;17.93;11.37;;;-2.40;99.90;;;;;;5031864;28;20029;-75
2023/01/18 06:21:00;;;;;;;14.13;9.13;;;-2.40;99.90;;;;;;5026269;28;20037;-74
2023/01/18 06:23:27;;;;;;;14.97;10.20;;;-2.40;99.90;;;;;;5042362;28;20048;-75
2023/01/18 06:25:53;;;;;;;15.57;9.67;;;-2.40;99.90;;;;;;5045468;28;20039;-74
2023/01/18 06:28:21;;;;;;;16.30;10.87;;;-2.40;99.90;;;;;;5028360;28;20611;-74
2023/01/18 06:30:51;;;;;;;11.57;8.37;;;-2.40;99.90;;;;;;5043494;28;20056;-75
2023/01/18 06:33:18;;;;;;;15.47;9.27;;;-2.40;99.90;;;;;;5019072;28;20044;-75
2023/01/18 06:35:44;;;;;;;15.57;8.97;;;-2.50;99.90;;;;;;5024768;28;20044;-76
2023/01/18 06:38:10;;;;;;;17.43;10.50;;;-2.50;99.90;;;;;;5028076;28;20044;-76
2023/01/18 06:40:37;;;;;;;17.80;11.20;;;-2.50;99.90;;;;;;5043201;28;20052;-76
2023/01/18 06:43:03;;;;;;;15.50;10.37;;;-2.50;99.90;;;;;;5016442;28;20043;-75
2023/01/18 06:45:30;;;;;;;16.60;10.13;;;-2.50;99.90;;;;;;5026243;28;20033;-76
2023/01/18 06:47:56;;;;;;;16.77;10.47;;;-2.50;99.90;;;;;;5044958;28;20041;-75
2023/01/18 06:50:22;;;;;;;17.63;10.83;;;-2.50;99.90;;;;;;5029790;28;20056;-75
2023/01/18 06:52:48;;;;;;;17.87;10.87;;;-2.50;99.90;;;;;;5002146;28;20044;-77
2023/01/18 06:55:15;;;;;;;15.47;9.37;;;-2.50;99.90;;;;;;5044328;28;20029;-74
2023/01/18 06:57:41;;;;;;;14.03;9.10;;;-2.50;99.90;;;;;;5026813;28;20249;-73
2023/01/18 07:00:09;;;;;;;14.03;8.10;;;-2.60;99.90;;;;;;5032780;28;21171;-74
2023/01/18 07:02:35;;;;;;;15.40;9.70;;;-2.60;99.90;;;;;;5033217;28;20040;-73
2023/01/18 07:05:03;;;;;;;16.20;10.50;;;-2.50;99.90;;;;;;5040419;28;20020;-73
2023/01/18 07:07:30;;;;;;;15.10;9.43;;;-2.60;99.90;;;;;;5022604;28;20037;-74
2023/01/18 07:09:57;;;;;;;15.20;10.17;;;-2.60;99.90;;;;;;5044211;28;20060;-73
2023/01/18 07:12:23;;;;;;;14.07;9.10;;;-2.60;99.90;;;;;;5003909;28;20040;-74
2023/01/18 07:14:50;;;;;;;13.87;9.00;;;-2.60;99.90;;;;;;5043119;28;20033;-74
2023/01/18 07:17:16;;;;;;;15.50;10.03;;;-2.60;99.90;;;;;;5049610;28;20037;-74
2023/01/18 07:19:43;;;;;;;13.63;8.37;;;-2.60;99.90;;;;;;5044569;28;20041;-74
2023/01/18 07:22:09;;;;;;;14.90;10.17;;;-2.60;99.90;;;;;;5006613;28;20033;-73
2023/01/18 07:24:35;;;;;;;17.60;10.83;;;-2.60;99.90;;;;;;5042171;28;20755;-73
2023/01/18 07:27:02;;;;;;;16.40;9.37;;;-2.60;99.90;;;;;;5046655;28;20568;-74
2023/01/18 07:29:28;;;;;;;15.47;9.30;;;-2.60;99.90;;;;;;5042531;28;20068;-73
2023/01/18 07:31:55;;;;;;;19.03;10.57;;;-2.60;99.90;;;;;;5023153;28;20041;-74
2023/01/18 07:34:21;;;;;;;14.57;8.93;;;-2.60;99.90;;;;;;5039835;28;20033;-74
2023/01/18 07:36:47;;;;;;;14.67;9.17;;;-2.50;99.90;;;;;;5027316;28;20037;-74
2023/01/18 07:39:14;;;;;;;16.73;8.90;;;-2.60;99.90;;;;;;5043980;28;20051;-74
2023/01/18 07:41:40;;;;;;;14.80;9.07;;;-2.60;99.90;;;;;;5023151;28;20043;-74
2023/01/18 07:44:09;;;;;;;12.77;8.37;;;-2.60;99.90;;;;;;5019292;28;20036;-73
2023/01/18 07:46:37;;;;;;;11.90;8.43;;;-2.60;99.90;;;;;;5023632;28;20041;-73
2023/01/18 07:49:04;;;;;;;14.43;8.17;;;-2.60;99.90;;;;;;5041843;28;20048;-74
2023/01/18 07:51:31;;;;;;;13.03;8.20;;;-2.60;99.90;;;;;;5038201;28;20047;-73
2023/01/18 07:53:58;;;;;;;14.03;8.63;;;-2.60;99.90;;;;;;5042803;28;20036;-74
2023/01/18 07:56:25;;;;;;;14.30;8.50;;;-2.60;99.90;;;;;;5042699;28;20028;-74
2023/01/18 07:58:52;;;;;;;11.53;7.37;;;-2.60;99.90;;;;;;5042684;28;20064;-74
2023/01/18 08:01:20;;;;;;;17.40;10.40;;;-2.50;99.90;;;;;;5039336;28;20442;-74
2023/01/18 08:03:48;;;;;;;16.20;9.80;;;-2.60;99.90;;;;;;5042086;28;20413;-73
2023/01/18 08:06:19;;;;;;;14.80;10.27;;;-2.60;99.90;;;;;;5043788;28;20531;-73
2023/01/18 08:08:45;;;;;;;17.00;10.67;;;-2.50;99.90;;;;;;5026887;28;20439;-74
2023/01/18 08:11:12;;;;;;;18.03;10.63;;;-2.50;99.90;;;;;;5026478;28;20602;-73
2023/01/18 08:13:38;;;;;;;16.60;9.53;;;-2.50;99.90;;;;;;5039113;28;20029;-74
2023/01/18 08:16:07;;;;;;;16.37;9.60;;;-2.50;99.90;;;;;;5018027;28;20044;-74
2023/01/18 08:18:33;;;;;;;18.43;9.90;;;-2.50;99.90;;;;;;5047748;28;20021;-75
2023/01/18 08:21:00;;;;;;;16.93;10.40;;;-2.40;99.90;;;;;;5044123;28;20044;-74
2023/01/18 08:23:26;;;;;;;15.70;10.57;;;-2.40;99.90;;;;;;5048264;28;20056;-75
2023/01/18 08:25:53;;;;;;;18.10;10.57;;;-2.40;99.90;;;;;;5031467;28;20041;-74
2023/01/18 08:28:20;;;;;;;20.03;11.80;;;-2.40;99.90;;;;;;5030617;28;20079;-74
2023/01/18 08:30:47;;;;;;;17.77;11.73;;;-2.40;99.90;;;;;;5030124;28;20057;-73
2023/01/18 08:33:13;;;;;;;20.03;11.17;;;-2.40;99.90;;;;;;5038495;28;20052;-74
2023/01/18 08:35:46;;;;;;;16.70;9.80;;;-2.30;99.90;;;;;;5014171;28;20491;-73
2023/01/18 08:38:14;;;;;;;23.02;13.05;;;-2.30;99.90;;;;;;5046110;28;20033;-73
2023/01/18 08:40:41;;;;;;;18.50;11.63;;;-2.20;99.90;;;;;;5035101;28;20045;-74
2023/01/18 08:43:09;;;;;;;15.40;10.30;;;-2.10;99.90;;;;;;5039020;28;20447;-73
2023/01/18 08:45:36;;;;;;;15.17;10.60;;;-2.10;99.90;;;;;;5026827;28;20535;-74
2023/01/18 08:48:08;;;;;;;15.13;10.00;;;-2.10;99.90;;;;;;5014200;28;20033;-73
2023/01/18 08:50:35;;;;;;;;;;;-2.00;99.90;;;;;;5047704;28;20044;-73
2023/01/18 08:53:02;;;;;;;15.77;9.87;;;-2.00;99.90;;;;;;5038059;28;19916;-73
2023/01/18 08:55:30;;;;;;;18.83;11.60;;;-1.90;99.90;;;;;;5029369;28;20506;-73
2023/01/18 08:57:57;;;;;;;22.27;15.17;;;-1.80;99.90;;;;;;5045694;28;20040;-73
2023/01/18 09:00:27;;;;;;;25.23;16.13;;;-1.80;99.90;;;;;;5044695;28;20036;-73
2023/01/18 09:02:53;;;;;;;26.17;17.30;;;-1.70;99.90;;;;;;5007627;28;20036;-73
2023/01/18 09:05:20;;;;;;;23.87;15.80;;;-1.60;99.90;;;;;;5030350;28;20480;-73
2023/01/18 09:07:46;;;;;;;25.40;16.80;;;-1.50;99.90;;;;;;5047386;28;20044;-73
2023/01/18 09:10:13;;;;;;;30.97;20.50;;;-1.40;99.90;;;;;;5047662;28;20041;-74
2023/01/18 09:12:40;;;;;;;29.50;19.40;;;-1.30;99.90;;;;;;5039252;28;20041;-74
2023/01/18 09:15:07;;;;;;;30.00;18.40;;;-1.20;99.90;;;;;;5010011;28;20044;-74
2023/01/18 09:17:33;;;;;;;33.40;21.10;;;-1.20;99.90;;;;;;5046387;28;20025;-74
2023/01/18 09:20:00;;;;;;;29.57;18.07;;;-1.10;99.90;;;;;;5045765;28;20056;-74
2023/01/18 09:22:26;;;;;;;26.10;18.43;;;-1.00;99.90;;;;;;5038252;28;20055;-73
2023/01/18 09:24:52;;;;;;;27.40;20.27;;;-0.90;99.90;;;;;;5029177;28;20037;-74
2023/01/18 09:27:18;;;;;;;29.90;20.23;;;-0.90;99.90;;;;;;5027312;28;20065;-74
2023/01/18 09:29:50;;;;;;;29.47;19.70;;;-0.80;99.90;;;;;;5031763;28;20041;-74
2023/01/18 09:32:18;;;;;;;28.63;19.60;;;-0.70;99.90;;;;;;5038389;28;20341;-74
2023/01/18 09:34:49;;;;;;;28.10;20.57;;;-0.60;99.90;;;;;;5027600;28;20037;-76
2023/01/18 09:37:16;;;;;;;28.50;18.13;;;-0.60;99.90;;;;;;5026528;28;20041;-76
2023/01/18 09:39:43;;;;;;;31.23;21.10;;;-0.50;99.90;;;;;;5045650;28;20048;-74
2023/01/18 09:42:20;;;;;;;31.30;20.67;;;-0.40;99.90;;;;;;5025312;28;20040;-73
2023/01/18 09:45:05;;;;;;;26.37;18.97;;;-0.40;99.90;;;;;;5046188;28;20037;-75
2023/01/18 09:47:39;;;;;;;27.67;20.17;;;-0.20;99.90;;;;;;5038440;28;20395;-75
2023/01/18 09:50:16;;;;;;;30.07;19.77;;;-0.10;99.90;;;;;;5029732;28;20041;-74
2023/01/18 09:53:07;;;;;;;37.63;23.73;;;0.10;99.90;;;;;;5025135;28;21085;-75
2023/01/18 09:55:52;;;;;;;32.80;23.80;;;0.30;99.90;;;;;;5045446;28;20063;-75
2023/01/18 09:58:37;;;;;;;31.70;22.10;;;0.40;99.90;;;;;;5030502;28;20390;-74
2023/01/18 10:01:22;;;;;;;32.90;22.77;;;0.40;99.90;;;;;;5023804;28;20025;-74
2023/01/18 10:03:56;;;;;;;26.90;20.37;;;0.40;99.90;;;;;;5010258;28;20045;-76
2023/01/18 10:06:48;;;;;;;28.57;19.27;;;0.50;99.90;;;;;;5063799;28;20029;-75
2023/01/18 10:09:19;;;;;;;29.80;19.73;;;0.70;99.90;;;;;;5014195;28;20044;-73
2023/01/18 10:12:00;;;;;;;20.27;14.87;;;1.00;99.90;;;;;;5043170;28;20045;-77
2023/01/18 10:14:47;;;;;;;23.17;15.50;;;1.20;99.90;;;;;;5043790;28;20037;-73
2023/01/18 10:17:20;;;;;;;18.47;14.10;;;1.20;99.90;;;;;;5045825;28;20033;-72
2023/01/18 10:19:46;;;;;;;17.67;13.18;;;1.20;99.90;;;;;;5044855;28;20461;-72
2023/01/18 10:22:31;;;;;;;17.23;11.27;;;1.40;99.90;;;;;;5040042;28;20029;-71
2023/01/18 10:25:01;;;;;;;15.53;10.87;;;1.70;99.90;;;;;;5029245;28;20045;-71
2023/01/18 10:27:35;;;;;;;16.23;9.23;;;1.90;99.90;;;;;;5016960;28;20041;-73
2023/01/18 10:30:27;;;;;;;13.38;8.10;;;2.20;99.90;;;;;;5027870;28;20044;-73
2023/01/18 10:33:09;;;;;;;14.40;9.10;;;2.40;99.90;;;;;;5023873;28;20039;-73
2023/01/18 10:35:44;;;;;;;13.13;8.10;;;2.60;99.90;;;;;;5044476;28;20036;-74
2023/01/18 10:38:18;;;;;;;11.35;8.07;;;3.00;99.90;;;;;;5036714;28;20041;-74
2023/01/18 10:40:53;;;;;;;15.75;7.70;;;3.20;99.90;;;;;;5045752;28;20515;-75
2023/01/18 10:43:24;;;;;;;11.50;8.45;;;3.20;99.90;;;;;;5042694;28;20040;-76
2023/01/18 10:45:52;;;;;;;11.93;9.07;;;3.40;99.90;;;;;;5044179;28;20049;-78
2023/01/18 10:48:31;;;;;;;13.85;9.45;;;3.60;99.90;;;;;;5043561;28;20036;-76
2023/01/18 10:51:00;;;;;;;13.70;9.10;;;4.00;99.90;;;;;;5025945;28;20045;-75
2023/01/18 10:53:32;;;;;;;13.60;9.82;;;4.20;99.90;;;;;;5039927;28;20037;-77
2023/01/18 10:56:20;;;;;;;14.35;9.75;;;4.20;99.90;;;;;;5045303;28;20397;-76
2023/01/18 10:58:49;;;;;;;12.13;8.43;;;4.10;99.90;;;;;;5030592;28;20040;-75
2023/01/18 11:01:21;;;;;;;12.05;8.73;;;3.90;99.90;;;;;;5044622;28;20041;-76
2023/01/18 11:03:54;;;;;;;14.10;10.10;;;3.70;99.90;;;;;;5041211;28;20033;-77
2023/01/18 11:06:21;;;;;;;18.30;9.95;;;3.50;99.90;;;;;;5043871;28;20060;-76
2023/01/18 11:08:49;;;;;;;16.13;11.23;;;3.30;99.90;;;;;;5049693;28;20047;-75
2023/01/18 11:12:32;;;;;;;14.57;10.93;;;3.10;99.90;;;;;;5039829;28;20519;-76
2023/01/18 11:14:29;;;;;;;15.18;10.13;;;3.00;99.90;;;;;;5038563;28;20162;-75
2023/01/18 11:17:09;;;;;;;14.88;10.93;;;2.90;99.90;;;;;;5032896;28;20399;-77
2023/01/18 11:19:37;;;;;;;14.37;10.50;;;2.80;99.90;;;;;;5051256;28;20029;-77
2023/01/18 11:22:11;;;;;;;18.40;12.48;;;2.70;99.90;;;;;;5010532;28;20041;-76
2023/01/18 11:24:37;;;;;;;18.53;11.93;;;2.60;99.90;;;;;;5042554;28;20472;-75
2023/01/18 11:27:21;;;;;;;15.33;11.43;;;2.60;99.90;;;;;;5044795;28;20403;-76
2023/01/18 11:29:49;;;;;;;15.23;11.50;;;2.50;99.90;;;;;;5043362;28;20376;-75
2023/01/18 11:32:23;;;;;;;12.83;10.00;;;2.50;99.90;;;;;;5004710;28;20028;-76
2023/01/18 11:34:55;;;;;;;15.80;11.25;;;2.50;99.90;;;;;;5028029;28;20029;-76
2023/01/18 11:37:27;;;;;;;19.83;12.80;;;2.50;99.90;;;;;;5026776;28;20037;-76
2023/01/18 11:39:53;;;;;;;17.95;12.02;;;2.50;99.90;;;;;;5043277;28;20628;-76
2023/01/18 11:42:33;;;;;;;13.37;11.03;;;2.50;99.90;;;;;;5023851;28;20025;-75
2023/01/18 11:45:13;;;;;;;14.03;11.00;;;2.50;99.90;;;;;;5042363;28;20029;-77
2023/01/18 11:48:04;;;;;;;16.83;11.77;;;2.50;99.90;;;;;;5045449;28;20032;-76
2023/01/18 11:50:47;;;;;;;18.67;12.10;;;2.40;99.90;;;;;;5026722;28;20367;-75
2023/01/18 11:53:45;;;;;;;19.50;13.90;;;2.40;99.90;;;;;;5035438;28;20044;-76
2023/01/18 11:56:33;;;;;;;16.40;13.00;;;2.50;99.90;;;;;;5026646;28;20036;-74
2023/01/18 11:59:01;;;;;;;18.17;13.13;;;2.50;99.90;;;;;;5058297;28;20468;-77
2023/01/18 12:01:36;;;;;;;15.98;11.35;;;2.50;99.90;;;;;;5039581;28;20486;-75
2023/01/18 12:04:31;;;;;;;19.53;13.03;;;2.50;99.90;;;;;;5039161;28;20049;-74
2023/01/18 12:07:31;;;;;;;19.65;12.60;;;2.50;99.90;;;;;;5040981;28;20045;-75
2023/01/18 12:10:00;;;;;;;19.87;11.63;;;2.50;99.90;;;;;;5028142;28;20044;-75
2023/01/18 12:13:04;;;;;;;19.63;12.37;;;2.60;99.90;;;;;;5036556;28;20032;-74
2023/01/18 12:16:00;;;;;;;20.60;13.47;;;2.60;99.90;;;;;;5043711;28;20494;-77
2023/01/18 12:18:49;;;;;;;17.27;13.23;;;2.60;99.90;;;;;;5040479;28;20482;-76
2023/01/18 12:21:38;;;;;;;18.73;13.77;;;2.60;99.90;;;;;;5035385;28;20067;-77
2023/01/18 12:24:10;;;;;;;19.47;12.77;;;2.60;99.90;;;;;;5038651;28;20048;-76
2023/01/18 12:26:58;;;;;;;18.10;12.93;;;2.60;99.90;;;;;;5045497;28;20052;-75
2023/01/18 12:29:30;;;;;;;13.30;11.43;;;2.60;99.90;;;;;;5043642;28;20482;-77
2023/01/18 12:32:13;;;;;;;18.65;13.40;;;2.60;99.90;;;;;;5039652;28;20056;-76
2023/01/18 12:35:08;;;;;;;18.02;13.80;;;2.70;99.90;;;;;;5041495;28;20037;-75
2023/01/18 12:38:09;;;;;;;15.70;12.43;;;2.70;99.90;;;;;;5041953;28;20028;-74
2023/01/18 12:40:57;;;;;;;17.57;12.03;;;2.70;99.90;;;;;;5044202;28;20361;-73
2023/01/18 12:43:31;;;;;;;16.73;12.57;;;2.80;99.90;;;;;;5021653;28;20040;-76
2023/01/18 12:46:07;;;;;;;16.67;13.17;;;2.80;99.90;;;;;;5042818;28;20033;-76
2023/01/18 12:48:58;;;;;;;15.63;10.50;;;2.80;99.90;;;;;;5029734;28;20498;-76
2023/01/18 12:51:28;;;;;;;15.77;11.53;;;2.90;99.90;;;;;;5040352;28;20045;-77
2023/01/18 12:53:57;;;;;;;14.27;10.30;;;2.90;99.90;;;;;;5038909;28;20428;-76
2023/01/18 12:56:47;;;;;;;16.27;13.23;;;2.90;99.90;;;;;;5042564;28;20468;-76
2023/01/18 12:59:24;;;;;;;14.10;10.93;;;3.00;99.90;;;;;;5010027;28;20040;-76
2023/01/18 13:01:56;;;;;;;17.27;11.18;;;2.90;99.90;;;;;;5022957;28;20484;-75
2023/01/18 13:04:27;;;;;;;15.00;10.48;;;2.90;99.90;;;;;;5041487;28;20492;-76
2023/01/18 13:06:58;;;;;;;14.17;9.80;;;3.00;99.90;;;;;;5028685;28;20043;-77
2023/01/18 13:09:32;;;;;;;12.17;8.97;;;3.00;99.90;;;;;;5046931;28;20041;-75
2023/01/18 13:12:01;;;;;;;11.50;9.55;;;3.00;99.90;;;;;;5043784;28;20393;-76
2023/01/18 13:14:32;;;;;;;13.93;10.07;;;3.00;99.90;;;;;;5041437;28;20039;-76
2023/01/18 13:17:04;;;;;;;15.73;10.33;;;3.00;99.90;;;;;;5034241;28;20040;-76
2023/01/18 13:20:10;;;;;;;13.52;9.07;;;3.00;99.90;;;;;;5035746;28;20036;-76
2023/01/18 13:22:48;;;;;;;11.52;9.82;;;3.00;99.90;;;;;;5037885;28;20057;-76
2023/01/18 13:25:53;;;;;;;14.20;9.43;;;3.00;99.90;;;;;;5030356;28;20434;-76
2023/01/18 13:28:22;;;;;;;15.07;9.47;;;3.00;99.90;;;;;;5045860;28;20069;-76
2023/01/18 13:31:03;;;;;;;16.70;10.93;;;3.00;99.90;;;;;;5046287;28;20320;-77
2023/01/18 13:33:33;;;;;;;16.48;9.80;;;3.00;99.90;;;;;;5041560;28;20375;-77
2023/01/18 13:36:18;;;;;;;11.98;9.20;;;3.00;99.90;;;;;;5046376;28;20021;-76